Terminal Aerodrome Forecast
Issued by NWS

Home | Current Version | Previous Version | Text Only | Print | Product List | Glossary On
Versions: 1 2 3 4 5 6 7 8 9 10 11 12 13 14 15 16
563
FTUS42 KMLB 241440 AAA
TAFSFB
TAF AMD
KSFB 241440Z 2415/2512 23007KT P6SM SCT025 BKN250
     FM241700 22008KT P6SM VCTS SCT040CB BKN120
      TEMPO 2420/2423 3SM TSRA BKN025CB
     FM250000 18005KT P6SM FEW020 BKN200=

USA.gov is the U.S. government's official web portal to all federal, state and local government web resources and services.